createdAt,value
2023-02-08T00:01:31.115Z,15.27
2023-02-08T00:03:59.837Z,17.33
2023-02-08T00:06:28.594Z,17.07
2023-02-08T00:08:57.238Z,17.37
2023-02-08T00:11:25.840Z,13.50
2023-02-08T00:13:54.513Z,19.60
2023-02-08T00:16:24.574Z,12.00
2023-02-08T00:18:53.178Z,16.00
2023-02-08T00:21:21.917Z,14.53
2023-02-08T00:23:50.751Z,11.37
2023-02-08T00:26:19.331Z,14.40
2023-02-08T00:28:47.917Z,11.93
2023-02-08T00:31:16.687Z,15.27
2023-02-08T00:33:46.704Z,12.47
2023-02-08T00:36:15.288Z,13.87
2023-02-08T00:38:43.984Z,19.60
2023-02-08T00:41:12.834Z,13.80
2023-02-08T00:43:41.448Z,16.40
2023-02-08T00:46:10.414Z,14.00
2023-02-08T00:48:39.042Z,13.33
2023-02-08T00:51:12.934Z,12.43
2023-02-08T00:53:43.370Z,15.17
2023-02-08T00:56:13.420Z,15.30
2023-02-08T00:58:42.247Z,12.57
2023-02-08T01:01:11.097Z,15.03
2023-02-08T01:03:41.154Z,14.33
2023-02-08T01:06:12.620Z,13.10
2023-02-08T01:08:41.413Z,18.30
2023-02-08T01:11:13.112Z,14.17
2023-02-08T01:13:42.325Z,16.63
2023-02-08T01:16:13.320Z,14.10
2023-02-08T01:18:43.168Z,16.83
2023-02-08T01:21:15.022Z,19.20
2023-02-08T01:23:44.056Z,18.83
2023-02-08T01:26:13.714Z,14.00
2023-02-08T01:28:42.884Z,12.93
2023-02-08T01:31:13.512Z,13.70
2023-02-08T01:33:42.393Z,15.60
2023-02-08T01:36:11.217Z,14.30
2023-02-08T01:38:41.400Z,16.10
2023-02-08T01:41:16.247Z,14.00
2023-02-08T01:44:05.479Z,15.93
2023-02-08T01:46:35.057Z,16.40
2023-02-08T01:49:06.973Z,14.40
2023-02-08T01:51:39.914Z,13.07
2023-02-08T01:54:11.220Z,11.73
2023-02-08T01:56:45.583Z,17.63
2023-02-08T01:59:18.302Z,12.60
2023-02-08T02:01:48.802Z,14.93
2023-02-08T02:04:17.598Z,17.33
2023-02-08T02:06:48.913Z,13.87
2023-02-08T02:09:23.366Z,14.57
2023-02-08T02:11:52.721Z,14.33
2023-02-08T02:14:21.637Z,14.83
2023-02-08T02:16:50.383Z,12.90
2023-02-08T02:19:27.601Z,14.17
2023-02-08T02:22:07.242Z,14.97
2023-02-08T02:25:03.064Z,14.37
2023-02-08T02:27:40.174Z,14.70
2023-02-08T02:30:47.478Z,17.00
2023-02-08T02:33:28.730Z,12.20
2023-02-08T02:36:01.580Z,14.57
2023-02-08T02:38:39.302Z,13.90
2023-02-08T02:41:36.090Z,16.90
2023-02-08T02:44:06.809Z,11.70
2023-02-08T02:46:40.401Z,12.27
2023-02-08T02:49:16.324Z,15.83
2023-02-08T02:51:47.755Z,15.43
2023-02-08T02:54:19.664Z,14.23
2023-02-08T02:56:51.251Z,13.23
2023-02-08T02:59:20.832Z,15.37
2023-02-08T03:01:50.046Z,15.47
2023-02-08T03:04:54.118Z,11.73
2023-02-08T03:07:48.785Z,12.10
2023-02-08T03:10:35.994Z,19.50
2023-02-08T03:13:08.713Z,13.20
2023-02-08T03:15:41.885Z,15.10
2023-02-08T03:18:21.846Z,12.30
2023-02-08T03:20:55.554Z,12.17
2023-02-08T03:23:29.594Z,11.40
2023-02-08T03:26:03.727Z,12.00
2023-02-08T03:28:37.749Z,13.23
2023-02-08T03:31:11.722Z,14.13
2023-02-08T03:33:43.553Z,15.67
2023-02-08T03:36:17.829Z,16.37
2023-02-08T03:38:47.152Z,10.50
2023-02-08T03:41:19.011Z,12.57
2023-02-08T03:43:50.720Z,12.13
2023-02-08T03:46:22.790Z,11.53
2023-02-08T03:48:56.039Z,14.97
2023-02-08T03:51:26.254Z,10.47
2023-02-08T03:53:55.236Z,13.73
2023-02-08T03:56:36.302Z,16.23
2023-02-08T03:59:08.626Z,15.67
2023-02-08T04:01:42.371Z,14.00
2023-02-08T04:04:11.767Z,22.10
2023-02-08T04:06:41.833Z,13.27
2023-02-08T04:09:10.490Z,13.10
2023-02-08T04:11:39.100Z,14.13
2023-02-08T04:14:07.748Z,15.53
2023-02-08T04:16:36.385Z,13.90
2023-02-08T04:19:05.016Z,12.97
2023-02-08T04:21:33.627Z,15.30
2023-02-08T04:24:03.607Z,11.50
2023-02-08T04:26:32.190Z,16.70
2023-02-08T04:29:00.739Z,11.50
2023-02-08T04:31:29.510Z,11.63
2023-02-08T04:33:58.205Z,15.23
2023-02-08T04:36:26.812Z,11.60
2023-02-08T04:38:55.581Z,17.00
2023-02-08T04:41:25.546Z,11.20
2023-02-08T04:43:54.240Z,15.20
2023-02-08T04:46:22.922Z,13.63
2023-02-08T04:48:51.554Z,14.10
2023-02-08T04:51:20.234Z,12.80
2023-02-08T04:53:48.853Z,19.17
2023-02-08T04:56:17.438Z,16.30
2023-02-08T04:58:48.460Z,12.77
2023-02-08T05:01:17.446Z,11.23
2023-02-08T05:03:46.082Z,14.50
2023-02-08T05:06:14.673Z,10.50
2023-02-08T05:08:43.301Z,17.73
2023-02-08T05:11:11.908Z,13.00
2023-02-08T05:13:40.550Z,13.07
2023-02-08T05:16:10.504Z,12.67
2023-02-08T05:18:39.139Z,13.57
2023-02-08T05:21:07.969Z,19.10
2023-02-08T05:23:37.724Z,12.00
2023-02-08T05:26:07.670Z,12.17
2023-02-08T05:28:36.612Z,17.40
2023-02-08T05:31:11.852Z,11.63
2023-02-08T05:33:40.537Z,13.50
2023-02-08T05:36:09.813Z,18.30
2023-02-08T05:38:38.507Z,22.00
2023-02-08T05:41:07.092Z,16.07
2023-02-08T05:43:35.705Z,12.90
2023-02-08T05:46:04.741Z,13.53
2023-02-08T05:48:34.892Z,18.50
2023-02-08T05:51:03.488Z,16.90
2023-02-08T05:53:32.208Z,17.47
2023-02-08T05:56:00.851Z,18.57
2023-02-08T05:58:29.660Z,16.90
2023-02-08T06:00:58.309Z,13.77
2023-02-08T06:03:27.101Z,14.13
2023-02-08T06:05:57.234Z,18.17
2023-02-08T06:08:25.852Z,22.77
2023-02-08T06:10:54.463Z,19.90
2023-02-08T06:13:23.065Z,15.30
2023-02-08T06:15:51.634Z,16.37
2023-02-08T06:18:20.201Z,19.23
2023-02-08T06:20:48.791Z,15.50
2023-02-08T06:23:18.783Z,15.67
2023-02-08T06:25:47.577Z,17.77
2023-02-08T06:28:16.303Z,22.80
2023-02-08T06:30:45.455Z,19.97
2023-02-08T06:33:15.837Z,18.37
2023-02-08T06:35:45.926Z,18.00
2023-02-08T06:38:14.695Z,17.30
2023-02-08T06:40:45.115Z,16.97
2023-02-08T06:43:13.734Z,18.63
2023-02-08T06:45:43.216Z,19.30
2023-02-08T06:48:11.821Z,18.07
2023-02-08T06:50:40.727Z,15.93
2023-02-08T06:53:09.635Z,18.97
2023-02-08T06:55:38.731Z,17.70
2023-02-08T06:58:08.702Z,20.10
2023-02-08T07:00:39.181Z,19.10
2023-02-08T07:03:08.048Z,16.80
2023-02-08T07:05:36.862Z,14.77
2023-02-08T07:08:07.757Z,17.03
2023-02-08T07:10:36.478Z,20.83
2023-02-08T07:13:05.111Z,20.83
2023-02-08T07:15:35.488Z,24.67
2023-02-08T07:18:04.225Z,14.00
2023-02-08T07:20:32.872Z,18.10
2023-02-08T07:23:01.552Z,17.87
2023-02-08T07:25:30.177Z,18.57
2023-02-08T07:27:58.851Z,13.63
2023-02-08T07:30:27.514Z,14.47
2023-02-08T07:32:57.544Z,17.07
2023-02-08T07:35:26.242Z,27.07
2023-02-08T07:37:54.911Z,16.27
2023-02-08T07:40:23.508Z,15.93
2023-02-08T07:42:52.055Z,22.17
2023-02-08T07:45:20.641Z,22.63
2023-02-08T07:47:49.255Z,18.30
2023-02-08T07:50:19.457Z,16.30
2023-02-08T07:52:48.105Z,19.50
2023-02-08T07:55:17.091Z,19.03
2023-02-08T07:57:46.050Z,15.53
2023-02-08T08:00:16.175Z,18.40
2023-02-08T08:02:44.896Z,16.33
2023-02-08T08:05:13.506Z,17.57
2023-02-08T08:07:43.543Z,21.03
2023-02-08T08:10:12.257Z,19.93
2023-02-08T08:12:40.892Z,19.00
2023-02-08T08:15:09.891Z,18.80
2023-02-08T08:17:41.989Z,16.63
2023-02-08T08:20:11.599Z,18.13
2023-02-08T08:22:40.178Z,18.20
2023-02-08T08:25:10.463Z,21.77
2023-02-08T08:27:39.223Z,18.53
2023-02-08T08:30:08.854Z,17.70
2023-02-08T08:32:38.628Z,20.93
2023-02-08T08:35:08.056Z,21.30
2023-02-08T08:37:37.255Z,25.53
2023-02-08T08:40:07.679Z,21.33
2023-02-08T08:42:39.803Z,21.90
2023-02-08T08:45:09.840Z,21.73
2023-02-08T08:47:38.457Z,19.47
2023-02-08T08:50:07.804Z,19.20
2023-02-08T08:52:36.421Z,23.73
2023-02-08T08:55:05.512Z,15.00
2023-02-08T08:57:34.179Z,20.03
2023-02-08T09:00:05.458Z,17.90
2023-02-08T09:02:34.136Z,17.33
2023-02-08T09:05:04.272Z,13.80
2023-02-08T09:07:34.353Z,18.50
2023-02-08T09:10:03.063Z,18.10
2023-02-08T09:12:31.767Z,22.27
2023-02-08T09:15:00.439Z,18.27
2023-02-08T09:17:30.422Z,17.53
2023-02-08T09:19:59.047Z,16.67
2023-02-08T09:22:27.741Z,17.53
2023-02-08T09:24:56.354Z,15.63
2023-02-08T09:27:24.971Z,13.60
2023-02-08T09:29:53.610Z,16.57
2023-02-08T09:32:22.990Z,17.50
2023-02-08T09:34:52.957Z,11.67
2023-02-08T09:37:21.602Z,16.17
2023-02-08T09:39:50.350Z,14.73
2023-02-08T09:42:36.950Z,12.90
2023-02-08T09:45:25.048Z,10.83
2023-02-08T09:48:00.132Z,13.77
2023-02-08T09:50:33.655Z,12.67
2023-02-08T09:53:07.673Z,17.70
2023-02-08T09:55:38.613Z,8.40
2023-02-08T09:58:17.964Z,14.43
2023-02-08T10:00:50.652Z,13.37
2023-02-08T10:03:31.325Z,14.30
2023-02-08T10:06:01.877Z,13.70
2023-02-08T10:08:35.290Z,11.30
2023-02-08T10:11:12.335Z,10.67
2023-02-08T10:13:51.522Z,11.90
2023-02-08T10:16:32.491Z,15.97
2023-02-08T10:19:06.201Z,13.13
2023-02-08T10:21:46.639Z,14.73
2023-02-08T10:24:33.580Z,15.07
2023-02-08T10:27:07.576Z,14.10
2023-02-08T10:29:49.792Z,15.17
2023-02-08T10:32:30.201Z,14.57
2023-02-08T10:35:01.419Z,17.40
2023-02-08T10:37:34.794Z,13.60
2023-02-08T10:40:16.795Z,16.57
2023-02-08T10:42:48.954Z,14.23
2023-02-08T10:45:24.589Z,17.43
2023-02-08T10:47:55.416Z,16.33
2023-02-08T10:50:29.850Z,15.20
2023-02-08T10:53:00.277Z,14.70
2023-02-08T10:55:31.191Z,22.30
2023-02-08T10:58:01.453Z,15.33
2023-02-08T11:00:32.666Z,14.93
2023-02-08T11:03:04.711Z,18.87
2023-02-08T11:05:35.179Z,18.97
2023-02-08T11:08:09.695Z,14.57
2023-02-08T11:10:38.789Z,15.20
2023-02-08T11:13:16.241Z,11.33
2023-02-08T11:15:47.208Z,10.80
2023-02-08T11:18:21.160Z,9.40
2023-02-08T11:20:51.259Z,15.60
2023-02-08T11:23:26.982Z,9.30
2023-02-08T11:25:56.922Z,11.30
2023-02-08T11:28:28.923Z,14.23
2023-02-08T11:30:59.938Z,9.50
2023-02-08T11:33:29.982Z,11.03
2023-02-08T11:36:05.269Z,9.37
2023-02-08T11:38:37.355Z,12.63
2023-02-08T11:41:06.961Z,11.37
2023-02-08T11:43:36.930Z,9.27
2023-02-08T11:46:06.479Z,9.87
2023-02-08T11:48:42.849Z,8.80
2023-02-08T11:51:14.386Z,6.83
2023-02-08T11:53:48.487Z,8.60
2023-02-08T11:56:19.634Z,7.73
2023-02-08T11:58:58.097Z,10.53
2023-02-08T12:01:29.878Z,7.90
2023-02-08T12:04:00.960Z,10.37
2023-02-08T12:06:42.155Z,8.13
2023-02-08T12:09:21.847Z,10.17
2023-02-08T12:11:52.983Z,11.57
2023-02-08T12:14:33.668Z,14.50
2023-02-08T12:17:15.761Z,8.47
2023-02-08T12:20:25.833Z,8.23
2023-02-08T12:23:00.152Z,13.10
2023-02-08T12:25:33.940Z,9.23
2023-02-08T12:28:08.771Z,10.70
2023-02-08T12:30:41.728Z,12.90
2023-02-08T12:33:33.448Z,10.83
2023-02-08T12:36:15.510Z,8.27
2023-02-08T12:39:20.719Z,9.07
2023-02-08T12:42:00.952Z,9.57
2023-02-08T12:44:37.719Z,11.07
2023-02-08T12:47:11.669Z,11.83
2023-02-08T12:49:51.551Z,11.87
2023-02-08T12:52:30.241Z,8.63
2023-02-08T12:55:02.909Z,11.60
2023-02-08T12:57:33.682Z,10.00
2023-02-08T13:00:06.316Z,9.40
2023-02-08T13:02:44.303Z,8.57
2023-02-08T13:05:17.739Z,9.43
2023-02-08T13:07:47.915Z,7.43
2023-02-08T13:10:26.440Z,10.97
2023-02-08T13:12:58.246Z,9.13
2023-02-08T13:15:31.445Z,8.63
2023-02-08T13:18:02.681Z,11.00
2023-02-08T13:20:39.089Z,9.13
2023-02-08T13:23:14.866Z,7.50
2023-02-08T13:25:44.430Z,9.83
2023-02-08T13:28:20.393Z,11.80
2023-02-08T13:30:56.510Z,9.07
2023-02-08T13:33:32.026Z,9.60
2023-02-08T13:36:00.817Z,9.53
2023-02-08T13:38:31.835Z,13.07
2023-02-08T13:41:06.050Z,9.43
2023-02-08T13:43:40.348Z,10.20
2023-02-08T13:46:09.660Z,11.00
2023-02-08T13:48:46.756Z,9.80
2023-02-08T13:51:48.987Z,12.57
2023-02-08T13:54:17.679Z,12.30
2023-02-08T13:56:48.134Z,11.73
2023-02-08T13:59:38.029Z,13.17
2023-02-08T14:02:29.478Z,11.60
2023-02-08T14:05:33.992Z,10.80
2023-02-08T14:08:04.578Z,11.10
2023-02-08T14:10:37.896Z,12.63
2023-02-08T14:13:09.496Z,12.17
2023-02-08T14:15:41.095Z,17.13
2023-02-08T14:18:28.236Z,13.07
2023-02-08T14:21:02.352Z,11.60
2023-02-08T14:23:32.860Z,11.83
2023-02-08T14:26:09.316Z,14.17
2023-02-08T14:28:40.250Z,12.07
2023-02-08T14:31:12.211Z,18.73
2023-02-08T14:33:42.978Z,15.17
2023-02-08T14:36:24.816Z,28.97
2023-02-08T14:39:15.775Z,14.03
2023-02-08T14:41:59.934Z,16.57
2023-02-08T14:45:05.674Z,16.03
2023-02-08T14:47:56.824Z,13.53
2023-02-08T14:50:29.081Z,15.87
2023-02-08T14:53:02.525Z,14.37
2023-02-08T14:55:33.517Z,14.27
2023-02-08T14:58:03.343Z,12.93
2023-02-08T15:00:35.443Z,20.00
2023-02-08T15:03:08.533Z,13.87
2023-02-08T15:05:41.890Z,15.17
2023-02-08T15:08:10.772Z,14.60
2023-02-08T15:10:42.894Z,18.03
2023-02-08T15:13:19.585Z,18.70
2023-02-08T15:15:52.286Z,14.70
2023-02-08T15:18:24.981Z,14.93
2023-02-08T15:21:03.473Z,14.33
2023-02-08T15:23:32.264Z,12.53
2023-02-08T15:26:02.862Z,12.97
2023-02-08T15:28:32.843Z,16.43
2023-02-08T15:31:05.064Z,15.40
2023-02-08T15:33:35.270Z,13.90
2023-02-08T15:36:06.903Z,14.60
2023-02-08T15:38:38.527Z,13.23
2023-02-08T15:41:08.954Z,13.43
2023-02-08T15:43:38.038Z,18.20
2023-02-08T15:46:09.071Z,21.17
2023-02-08T15:48:43.657Z,14.30
2023-02-08T15:51:14.642Z,14.63
2023-02-08T15:53:45.307Z,17.87
2023-02-08T15:56:24.037Z,15.07
2023-02-08T15:59:03.731Z,18.20
2023-02-08T16:01:32.664Z,13.27
2023-02-08T16:04:05.924Z,13.53
2023-02-08T16:06:38.338Z,14.60
2023-02-08T16:09:07.404Z,18.20
2023-02-08T16:11:37.217Z,15.30
2023-02-08T16:14:07.744Z,12.50
2023-02-08T16:16:41.646Z,14.90
2023-02-08T16:19:26.472Z,14.83
2023-02-08T16:21:56.561Z,15.70
2023-02-08T16:24:27.034Z,15.97
2023-02-08T16:27:02.507Z,13.57
2023-02-08T16:29:33.033Z,14.33
2023-02-08T16:32:07.975Z,13.00
2023-02-08T16:34:41.323Z,15.77
2023-02-08T16:37:26.963Z,17.33
2023-02-08T16:39:56.872Z,17.53
2023-02-08T16:42:33.801Z,16.30
2023-02-08T16:45:13.748Z,17.50
2023-02-08T16:47:45.052Z,15.67
2023-02-08T16:50:17.463Z,15.83
2023-02-08T16:52:51.672Z,18.13
2023-02-08T16:55:22.497Z,21.40
2023-02-08T16:57:52.724Z,16.50
2023-02-08T17:00:26.453Z,14.73
2023-02-08T17:02:56.025Z,16.43
2023-02-08T17:05:27.940Z,22.70
2023-02-08T17:07:56.685Z,17.00
2023-02-08T17:10:28.946Z,16.70
2023-02-08T17:13:17.075Z,21.60
2023-02-08T17:15:48.357Z,16.93
2023-02-08T17:18:17.347Z,17.70
2023-02-08T17:20:47.685Z,17.00
2023-02-08T17:23:16.894Z,19.50
2023-02-08T17:25:46.047Z,23.17
2023-02-08T17:28:18.296Z,27.70
2023-02-08T17:30:47.908Z,22.27
2023-02-08T17:33:18.876Z,17.07
2023-02-08T17:35:50.277Z,19.57
2023-02-08T17:38:20.326Z,17.57
2023-02-08T17:40:49.083Z,17.53
2023-02-08T17:43:17.803Z,18.03
2023-02-08T17:45:47.053Z,17.67
2023-02-08T17:48:15.868Z,17.80
2023-02-08T17:50:50.754Z,18.07
2023-02-08T17:53:21.014Z,17.77
2023-02-08T17:55:49.683Z,18.07
2023-02-08T17:58:18.906Z,15.37
2023-02-08T18:00:47.568Z,19.50
2023-02-08T18:03:17.271Z,24.33
2023-02-08T18:05:45.959Z,23.97
2023-02-08T18:08:14.720Z,21.03
2023-02-08T18:10:45.094Z,22.67
2023-02-08T18:13:13.887Z,26.43
2023-02-08T18:15:43.108Z,27.63
2023-02-08T18:18:12.247Z,32.73
2023-02-08T18:20:44.156Z,25.13
2023-02-08T18:23:12.776Z,27.40
2023-02-08T18:25:42.638Z,21.33
2023-02-08T18:28:15.133Z,23.80
2023-02-08T18:30:43.927Z,22.20
2023-02-08T18:33:13.734Z,21.47
2023-02-08T18:35:43.100Z,19.53
2023-02-08T18:38:11.812Z,29.00
2023-02-08T18:40:41.397Z,19.90
2023-02-08T18:43:10.068Z,18.30
2023-02-08T18:45:40.070Z,28.10
2023-02-08T18:48:08.676Z,23.07
2023-02-08T18:50:37.376Z,27.73
2023-02-08T18:53:06.161Z,25.03
2023-02-08T18:55:34.772Z,24.40
2023-02-08T18:58:03.418Z,24.23
2023-02-08T19:00:32.050Z,23.40
2023-02-08T19:03:01.976Z,20.57
2023-02-08T19:05:30.882Z,21.83
2023-02-08T19:07:59.528Z,20.37
2023-02-08T19:10:28.230Z,20.63
2023-02-08T19:12:56.905Z,21.30
2023-02-08T19:15:25.498Z,19.67
2023-02-08T19:17:55.830Z,19.27
2023-02-08T19:20:25.825Z,20.60
2023-02-08T19:22:54.417Z,19.10
2023-02-08T19:25:23.244Z,24.50
2023-02-08T19:27:51.918Z,18.53
2023-02-08T19:30:20.966Z,21.10
2023-02-08T19:32:49.656Z,21.80
2023-02-08T19:35:19.593Z,21.43
2023-02-08T19:37:51.227Z,17.27
2023-02-08T19:40:20.732Z,17.33
2023-02-08T19:42:49.341Z,19.40
2023-02-08T19:45:18.071Z,17.63
2023-02-08T19:47:51.535Z,16.73
2023-02-08T19:50:20.476Z,17.33
2023-02-08T19:52:50.414Z,19.43
2023-02-08T19:55:19.154Z,19.90
2023-02-08T19:57:47.818Z,23.10
2023-02-08T20:00:23.991Z,20.30
2023-02-08T20:02:52.964Z,18.67
2023-02-08T20:05:21.597Z,22.23
2023-02-08T20:07:51.541Z,19.80
2023-02-08T20:10:20.247Z,17.77
2023-02-08T20:12:48.925Z,22.03
2023-02-08T20:15:17.714Z,23.33
2023-02-08T20:17:46.687Z,21.67
2023-02-08T20:20:15.342Z,23.73
2023-02-08T20:22:43.955Z,21.50
2023-02-08T20:25:13.936Z,21.13
2023-02-08T20:27:42.601Z,20.40
2023-02-08T20:30:12.045Z,21.80
2023-02-08T20:32:41.043Z,20.07
2023-02-08T20:35:09.805Z,18.53
2023-02-08T20:37:38.446Z,18.80
2023-02-08T20:40:07.945Z,19.20
2023-02-08T20:42:38.387Z,20.87
2023-02-08T20:45:08.834Z,21.03
2023-02-08T20:47:45.971Z,19.07
2023-02-08T20:50:19.209Z,25.83
2023-02-08T20:52:49.145Z,21.50
2023-02-08T20:55:17.885Z,18.83
2023-02-08T20:57:47.858Z,18.70
2023-02-08T21:00:16.939Z,19.33
2023-02-08T21:02:45.665Z,20.53
2023-02-08T21:05:14.409Z,20.13
2023-02-08T21:07:43.097Z,17.20
2023-02-08T21:10:11.761Z,19.63
2023-02-08T21:12:40.434Z,19.10
2023-02-08T21:15:11.292Z,22.03
2023-02-08T21:17:41.183Z,20.00
2023-02-08T21:20:11.970Z,22.20
2023-02-08T21:22:40.683Z,52.83
2023-02-08T21:25:10.412Z,21.97
2023-02-08T21:27:39.153Z,19.10
2023-02-08T21:30:10.451Z,23.93
2023-02-08T21:32:41.393Z,15.93
2023-02-08T21:35:10.124Z,20.70
2023-02-08T21:37:38.797Z,23.20
2023-02-08T21:40:07.823Z,18.10
2023-02-08T21:42:36.567Z,21.17
2023-02-08T21:45:05.965Z,18.77
2023-02-08T21:47:35.938Z,18.00
2023-02-08T21:50:36.882Z,24.53
2023-02-08T21:53:23.318Z,21.63
2023-02-08T21:55:52.245Z,20.03
2023-02-08T21:58:20.908Z,21.40
2023-02-08T22:00:49.596Z,19.70
2023-02-08T22:03:19.971Z,17.80
2023-02-08T22:06:06.909Z,20.00
2023-02-08T22:08:35.621Z,20.13
2023-02-08T22:11:04.994Z,17.70
2023-02-08T22:13:34.385Z,22.57
2023-02-08T22:16:08.482Z,22.83
2023-02-08T22:18:41.273Z,20.60
2023-02-08T22:21:10.139Z,18.47
2023-02-08T22:23:38.783Z,17.17
2023-02-08T22:26:10.602Z,25.27
2023-02-08T22:28:39.247Z,21.80
2023-02-08T22:31:07.945Z,25.47
2023-02-08T22:33:37.992Z,21.37
2023-02-08T22:36:07.716Z,21.83
2023-02-08T22:38:36.734Z,20.57
2023-02-08T22:41:10.291Z,22.90
2023-02-08T22:43:39.079Z,20.60
2023-02-08T22:46:08.269Z,22.50
2023-02-08T22:48:38.378Z,20.60
2023-02-08T22:51:08.075Z,21.43
2023-02-08T22:53:36.811Z,25.83
2023-02-08T22:56:06.270Z,19.20
2023-02-08T22:58:34.935Z,20.77
2023-02-08T23:01:03.556Z,17.80
2023-02-08T23:03:32.950Z,22.53
2023-02-08T23:06:05.901Z,25.43
2023-02-08T23:08:34.635Z,20.10
2023-02-08T23:11:05.511Z,20.40
2023-02-08T23:13:35.132Z,19.77
2023-02-08T23:16:03.815Z,25.70
2023-02-08T23:18:32.618Z,19.73
2023-02-08T23:21:07.795Z,22.80
2023-02-08T23:23:36.811Z,18.30
2023-02-08T23:26:06.695Z,18.10
2023-02-08T23:28:35.526Z,27.47
2023-02-08T23:31:05.949Z,23.13
2023-02-08T23:33:34.781Z,18.67
2023-02-08T23:36:07.909Z,21.23
2023-02-08T23:38:36.705Z,19.33
2023-02-08T23:41:06.191Z,18.60
2023-02-08T23:43:35.098Z,17.30
2023-02-08T23:46:07.010Z,20.33
2023-02-08T23:48:37.845Z,21.03
2023-02-08T23:51:09.281Z,21.30
2023-02-08T23:53:38.446Z,19.80
2023-02-08T23:56:12.060Z,22.87
2023-02-08T23:58:41.040Z,19.47
